sensor_id;sensor_type;location;lat;lon;timestamp;pressure;altitude;pressure_sealevel;temperature;humidity
72124;BME280;63818;37.134;-8.548;2023-04-02T00:04:20;102220.1;;;19.4;69.7
72124;BME280;63818;37.134;-8.548;2023-04-02T00:09:51;102221.7;;;19.4;69.9
72124;BME280;63818;37.134;-8.548;2023-04-02T00:14:38;102210.2;;;19.3;69.9
72124;BME280;63818;37.134;-8.548;2023-04-02T00:19:34;102208.6;;;19.3;70.1
72124;BME280;63818;37.134;-8.548;2023-04-02T00:24:21;102196.4;;;19.3;70.0
72124;BME280;63818;37.134;-8.548;2023-04-02T00:29:09;102201.7;;;19.3;70.1
72124;BME280;63818;37.134;-8.548;2023-04-02T00:34:11;102190.7;;;19.3;70.2
72124;BME280;63818;37.134;-8.548;2023-04-02T00:39:02;102193.2;;;19.2;70.5
72124;BME280;63818;37.134;-8.548;2023-04-02T00:43:49;102194.8;;;19.3;70.7
72124;BME280;63818;37.134;-8.548;2023-04-02T00:48:41;102176.9;;;19.2;71.0
72124;BME280;63818;37.134;-8.548;2023-04-02T00:53:30;102177.2;;;19.2;70.8
72124;BME280;63818;37.134;-8.548;2023-04-02T00:58:22;102176.8;;;19.2;71.2
72124;BME280;63818;37.134;-8.548;2023-04-02T01:03:45;102181.4;;;19.2;70.9
72124;BME280;63818;37.134;-8.548;2023-04-02T01:08:47;102174.8;;;19.2;70.7
72124;BME280;63818;37.134;-8.548;2023-04-02T01:13:39;102177.1;;;19.2;70.4
72124;BME280;63818;37.134;-8.548;2023-04-02T01:18:47;102174.8;;;19.2;69.9
72124;BME280;63818;37.134;-8.548;2023-04-02T01:23:36;102158.5;;;19.2;69.5
72124;BME280;63818;37.134;-8.548;2023-04-02T01:28:31;102156.4;;;19.2;69.6
72124;BME280;63818;37.134;-8.548;2023-04-02T01:33:20;102151.3;;;19.2;69.9
72124;BME280;63818;37.134;-8.548;2023-04-02T01:38:10;102148.6;;;19.2;69.8
72124;BME280;63818;37.134;-8.548;2023-04-02T01:43:23;102153.4;;;19.2;69.9
72124;BME280;63818;37.134;-8.548;2023-04-02T01:48:16;102144.9;;;19.2;69.5
72124;BME280;63818;37.134;-8.548;2023-04-02T01:53:04;102147.9;;;19.2;69.4
72124;BME280;63818;37.134;-8.548;2023-04-02T01:57:54;102143.1;;;19.2;69.5
72124;BME280;63818;37.134;-8.548;2023-04-02T02:02:46;102138.1;;;19.2;69.5
72124;BME280;63818;37.134;-8.548;2023-04-02T02:07:36;102140.9;;;19.2;69.6
72124;BME280;63818;37.134;-8.548;2023-04-02T02:12:22;102136.4;;;19.1;69.0
72124;BME280;63818;37.134;-8.548;2023-04-02T02:17:12;102125.7;;;19.1;68.7
72124;BME280;63818;37.134;-8.548;2023-04-02T02:22:06;102107.8;;;19.1;68.6
72124;BME280;63818;37.134;-8.548;2023-04-02T02:27:02;102121.2;;;19.0;68.4
72124;BME280;63818;37.134;-8.548;2023-04-02T02:31:51;102109.0;;;19.0;68.4
72124;BME280;63818;37.134;-8.548;2023-04-02T02:36:48;102093.4;;;19.0;68.1
72124;BME280;63818;37.134;-8.548;2023-04-02T02:41:40;102084.8;;;18.9;68.1
72124;BME280;63818;37.134;-8.548;2023-04-02T02:46:32;102085.4;;;18.7;67.4
72124;BME280;63818;37.134;-8.548;2023-04-02T02:51:22;102075.0;;;18.7;67.5
72124;BME280;63818;37.134;-8.548;2023-04-02T02:56:15;102071.8;;;18.6;67.9
72124;BME280;63818;37.134;-8.548;2023-04-02T03:01:02;102066.5;;;18.6;67.5
72124;BME280;63818;37.134;-8.548;2023-04-02T03:05:52;102057.9;;;18.6;67.4
72124;BME280;63818;37.134;-8.548;2023-04-02T03:10:42;102048.5;;;18.6;67.1
72124;BME280;63818;37.134;-8.548;2023-04-02T03:15:37;102044.3;;;18.5;67.1
72124;BME280;63818;37.134;-8.548;2023-04-02T03:20:34;102030.6;;;18.5;66.9
72124;BME280;63818;37.134;-8.548;2023-04-02T03:25:25;102043.7;;;18.4;66.8
72124;BME280;63818;37.134;-8.548;2023-04-02T03:30:33;102034.9;;;18.5;66.7
72124;BME280;63818;37.134;-8.548;2023-04-02T03:35:19;102034.2;;;18.5;66.6
72124;BME280;63818;37.134;-8.548;2023-04-02T03:40:17;102033.1;;;18.5;66.7
72124;BME280;63818;37.134;-8.548;2023-04-02T03:45:10;102045.1;;;18.5;66.5
72124;BME280;63818;37.134;-8.548;2023-04-02T03:50:05;102040.2;;;18.5;66.5
72124;BME280;63818;37.134;-8.548;2023-04-02T03:54:53;102034.9;;;18.5;66.3
72124;BME280;63818;37.134;-8.548;2023-04-02T03:59:43;102035.4;;;18.5;66.5
72124;BME280;63818;37.134;-8.548;2023-04-02T04:04:32;102038.1;;;18.5;66.4
72124;BME280;63818;37.134;-8.548;2023-04-02T04:09:23;102036.5;;;18.5;66.0
72124;BME280;63818;37.134;-8.548;2023-04-02T04:14:16;102031.4;;;18.5;66.5
72124;BME280;63818;37.134;-8.548;2023-04-02T04:19:04;102019.0;;;18.5;66.3
72124;BME280;63818;37.134;-8.548;2023-04-02T04:23:54;102010.4;;;18.5;65.7
72124;BME280;63818;37.134;-8.548;2023-04-02T04:28:47;102006.1;;;18.5;65.7
72124;BME280;63818;37.134;-8.548;2023-04-02T04:33:42;102007.2;;;18.5;65.5
72124;BME280;63818;37.134;-8.548;2023-04-02T04:38:31;102003.2;;;18.4;65.6
72124;BME280;63818;37.134;-8.548;2023-04-02T04:43:24;102010.9;;;18.4;65.5
72124;BME280;63818;37.134;-8.548;2023-04-02T04:48:17;102004.7;;;18.4;65.0
72124;BME280;63818;37.134;-8.548;2023-04-02T04:53:19;102007.2;;;18.4;65.0
72124;BME280;63818;37.134;-8.548;2023-04-02T04:58:10;102005.0;;;18.4;65.1
72124;BME280;63818;37.134;-8.548;2023-04-02T05:03:05;101996.7;;;18.4;64.8
72124;BME280;63818;37.134;-8.548;2023-04-02T05:08:04;102007.6;;;18.4;64.9
72124;BME280;63818;37.134;-8.548;2023-04-02T05:12:58;102014.8;;;18.3;64.6
72124;BME280;63818;37.134;-8.548;2023-04-02T05:17:54;102020.6;;;18.3;64.7
72124;BME280;63818;37.134;-8.548;2023-04-02T05:22:46;102017.1;;;18.3;64.2
72124;BME280;63818;37.134;-8.548;2023-04-02T05:27:42;102023.6;;;18.3;63.8
72124;BME280;63818;37.134;-8.548;2023-04-02T05:32:34;102024.4;;;18.3;63.5
72124;BME280;63818;37.134;-8.548;2023-04-02T05:37:23;102017.7;;;18.3;62.2
72124;BME280;63818;37.134;-8.548;2023-04-02T05:42:16;102018.4;;;18.2;61.4
72124;BME280;63818;37.134;-8.548;2023-04-02T05:47:13;102024.8;;;18.2;61.1
72124;BME280;63818;37.134;-8.548;2023-04-02T05:52:02;102031.5;;;18.1;61.3
72124;BME280;63818;37.134;-8.548;2023-04-02T05:56:52;102035.7;;;18.1;61.8
72124;BME280;63818;37.134;-8.548;2023-04-02T06:01:42;102035.4;;;18.0;62.1
72124;BME280;63818;37.134;-8.548;2023-04-02T06:06:45;102039.2;;;18.0;61.7
72124;BME280;63818;37.134;-8.548;2023-04-02T06:11:38;102040.5;;;18.0;62.2
72124;BME280;63818;37.134;-8.548;2023-04-02T06:16:28;102057.5;;;18.0;62.4
72124;BME280;63818;37.134;-8.548;2023-04-02T06:21:26;102055.6;;;17.9;62.2
72124;BME280;63818;37.134;-8.548;2023-04-02T06:26:17;102063.3;;;17.9;62.5
72124;BME280;63818;37.134;-8.548;2023-04-02T06:31:07;102051.3;;;17.9;62.3
72124;BME280;63818;37.134;-8.548;2023-04-02T06:35:55;102059.1;;;17.9;62.0
72124;BME280;63818;37.134;-8.548;2023-04-02T06:40:46;102070.9;;;17.9;62.6
72124;BME280;63818;37.134;-8.548;2023-04-02T06:45:39;102066.6;;;17.9;62.0
72124;BME280;63818;37.134;-8.548;2023-04-02T06:50:30;102074.8;;;18.0;63.2
72124;BME280;63818;37.134;-8.548;2023-04-02T06:55:26;102097.2;;;18.0;64.0
72124;BME280;63818;37.134;-8.548;2023-04-02T07:00:25;102092.7;;;18.0;64.3
72124;BME280;63818;37.134;-8.548;2023-04-02T07:05:13;102094.8;;;18.0;64.5
72124;BME280;63818;37.134;-8.548;2023-04-02T07:10:02;102101.8;;;18.0;64.9
72124;BME280;63818;37.134;-8.548;2023-04-02T07:15:13;102112.2;;;18.0;65.0
72124;BME280;63818;37.134;-8.548;2023-04-02T07:19:59;102129.9;;;18.1;65.3
72124;BME280;63818;37.134;-8.548;2023-04-02T07:29:39;102126.4;;;18.1;65.7
72124;BME280;63818;37.134;-8.548;2023-04-02T07:34:27;102134.7;;;18.2;66.2
72124;BME280;63818;37.134;-8.548;2023-04-02T07:39:16;102125.4;;;18.2;66.1
72124;BME280;63818;37.134;-8.548;2023-04-02T07:44:03;102117.3;;;18.2;65.2
72124;BME280;63818;37.134;-8.548;2023-04-02T07:48:49;102124.6;;;18.2;64.5
72124;BME280;63818;37.134;-8.548;2023-04-02T07:58:27;102138.2;;;18.2;63.6
72124;BME280;63818;37.134;-8.548;2023-04-02T08:03:13;102119.2;;;18.2;62.5
72124;BME280;63818;37.134;-8.548;2023-04-02T08:08:02;102121.3;;;18.2;62.3
72124;BME280;63818;37.134;-8.548;2023-04-02T08:12:50;102124.8;;;18.2;62.0
72124;BME280;63818;37.134;-8.548;2023-04-02T08:17:36;102132.8;;;18.2;61.2
72124;BME280;63818;37.134;-8.548;2023-04-02T08:22:26;102118.2;;;18.2;61.4
72124;BME280;63818;37.134;-8.548;2023-04-02T08:27:17;102140.5;;;18.2;61.3
72124;BME280;63818;37.134;-8.548;2023-04-02T08:32:03;102130.4;;;18.2;60.8
72124;BME280;63818;37.134;-8.548;2023-04-02T08:36:55;102124.9;;;18.2;60.6
72124;BME280;63818;37.134;-8.548;2023-04-02T08:41:44;102133.9;;;18.2;60.2
72124;BME280;63818;37.134;-8.548;2023-04-02T08:46:36;102140.1;;;18.3;60.3
72124;BME280;63818;37.134;-8.548;2023-04-02T08:51:29;102137.7;;;18.3;60.0
72124;BME280;63818;37.134;-8.548;2023-04-02T08:56:19;102149.1;;;18.4;59.8
72124;BME280;63818;37.134;-8.548;2023-04-02T09:01:20;102148.6;;;18.4;60.0
72124;BME280;63818;37.134;-8.548;2023-04-02T09:06:11;102159.1;;;18.4;59.2
72124;BME280;63818;37.134;-8.548;2023-04-02T09:11:01;102152.3;;;18.5;58.6
72124;BME280;63818;37.134;-8.548;2023-04-02T09:16:01;102154.6;;;18.5;58.0
72124;BME280;63818;37.134;-8.548;2023-04-02T09:20:49;102152.1;;;18.5;58.5
72124;BME280;63818;37.134;-8.548;2023-04-02T09:25:48;102151.9;;;18.6;58.6
72124;BME280;63818;37.134;-8.548;2023-04-02T09:30:42;102154.3;;;18.6;58.3
72124;BME280;63818;37.134;-8.548;2023-04-02T09:35:34;102152.9;;;18.6;58.5
72124;BME280;63818;37.134;-8.548;2023-04-02T09:40:27;102156.9;;;18.6;58.9
72124;BME280;63818;37.134;-8.548;2023-04-02T09:45:19;102162.8;;;18.6;59.7
72124;BME280;63818;37.134;-8.548;2023-04-02T09:50:23;102163.2;;;18.7;59.9
72124;BME280;63818;37.134;-8.548;2023-04-02T09:55:22;102171.1;;;18.7;59.9
72124;BME280;63818;37.134;-8.548;2023-04-02T10:00:10;102173.5;;;18.7;59.8
72124;BME280;63818;37.134;-8.548;2023-04-02T10:05:01;102171.2;;;18.7;60.0
72124;BME280;63818;37.134;-8.548;2023-04-02T10:09:56;102171.7;;;18.7;59.9
72124;BME280;63818;37.134;-8.548;2023-04-02T10:14:45;102158.2;;;18.8;60.0
72124;BME280;63818;37.134;-8.548;2023-04-02T10:19:36;102165.3;;;18.8;59.9
72124;BME280;63818;37.134;-8.548;2023-04-02T10:24:26;102154.9;;;18.8;60.4
72124;BME280;63818;37.134;-8.548;2023-04-02T10:29:27;102158.9;;;18.8;60.3
72124;BME280;63818;37.134;-8.548;2023-04-02T10:34:22;102141.4;;;18.8;60.0
72124;BME280;63818;37.134;-8.548;2023-04-02T10:39:11;102134.8;;;18.9;59.2
72124;BME280;63818;37.134;-8.548;2023-04-02T10:44:08;102137.5;;;18.9;58.7
72124;BME280;63818;37.134;-8.548;2023-04-02T10:49:22;102137.5;;;18.9;61.1
72124;BME280;63818;37.134;-8.548;2023-04-02T10:54:19;102136.4;;;18.9;60.4
72124;BME280;63818;37.134;-8.548;2023-04-02T10:59:17;102139.1;;;18.9;60.7
72124;BME280;63818;37.134;-8.548;2023-04-02T11:04:09;102130.0;;;18.8;61.1
72124;BME280;63818;37.134;-8.548;2023-04-02T11:09:02;102131.6;;;18.8;60.8
72124;BME280;63818;37.134;-8.548;2023-04-02T11:13:55;102123.1;;;18.8;61.0
72124;BME280;63818;37.134;-8.548;2023-04-02T11:19:19;102107.9;;;18.8;60.1
72124;BME280;63818;37.134;-8.548;2023-04-02T11:24:24;102111.9;;;18.9;59.5
72124;BME280;63818;37.134;-8.548;2023-04-02T11:29:17;102106.1;;;18.9;59.6
72124;BME280;63818;37.134;-8.548;2023-04-02T11:34:05;102097.6;;;18.9;59.9
72124;BME280;63818;37.134;-8.548;2023-04-02T11:38:58;102105.9;;;18.9;61.9
72124;BME280;63818;37.134;-8.548;2023-04-02T11:44:00;102100.1;;;18.8;64.2
72124;BME280;63818;37.134;-8.548;2023-04-02T11:48:46;102099.1;;;18.8;65.2
72124;BME280;63818;37.134;-8.548;2023-04-02T11:53:35;102106.4;;;18.7;65.5
72124;BME280;63818;37.134;-8.548;2023-04-02T11:58:43;102091.1;;;18.7;64.6
72124;BME280;63818;37.134;-8.548;2023-04-02T12:04:24;102086.4;;;18.7;63.1
72124;BME280;63818;37.134;-8.548;2023-04-02T12:09:18;102068.6;;;18.7;63.3
72124;BME280;63818;37.134;-8.548;2023-04-02T12:14:29;102073.0;;;18.8;64.4
72124;BME280;63818;37.134;-8.548;2023-04-02T12:19:16;102079.7;;;18.8;64.8
72124;BME280;63818;37.134;-8.548;2023-04-02T12:24:02;102070.5;;;18.7;64.9
72124;BME280;63818;37.134;-8.548;2023-04-02T12:29:24;102072.0;;;18.7;65.0
72124;BME280;63818;37.134;-8.548;2023-04-02T12:34:15;102051.2;;;18.6;64.5
72124;BME280;63818;37.134;-8.548;2023-04-02T12:39:01;102056.5;;;18.6;65.5
72124;BME280;63818;37.134;-8.548;2023-04-02T12:44:00;102063.8;;;18.6;65.3
72124;BME280;63818;37.134;-8.548;2023-04-02T12:48:47;102056.8;;;18.6;65.7
72124;BME280;63818;37.134;-8.548;2023-04-02T12:53:35;102052.6;;;18.6;66.6
72124;BME280;63818;37.134;-8.548;2023-04-02T12:58:32;102052.0;;;18.6;66.9
72124;BME280;63818;37.134;-8.548;2023-04-02T13:03:21;102042.2;;;18.6;66.3
72124;BME280;63818;37.134;-8.548;2023-04-02T13:08:17;102031.0;;;18.6;66.0
72124;BME280;63818;37.134;-8.548;2023-04-02T13:13:05;102018.0;;;18.7;65.4
72124;BME280;63818;37.134;-8.548;2023-04-02T13:18:05;102009.9;;;18.7;65.4
72124;BME280;63818;37.134;-8.548;2023-04-02T13:22:55;102006.4;;;18.7;62.9
72124;BME280;63818;37.134;-8.548;2023-04-02T13:27:42;101993.1;;;18.7;61.7
72124;BME280;63818;37.134;-8.548;2023-04-02T13:32:29;102002.4;;;18.8;63.7
72124;BME280;63818;37.134;-8.548;2023-04-02T13:37:15;101986.6;;;18.9;64.1
72124;BME280;63818;37.134;-8.548;2023-04-02T13:42:02;101991.4;;;18.9;64.2
72124;BME280;63818;37.134;-8.548;2023-04-02T13:47:17;101987.1;;;18.9;62.7
72124;BME280;63818;37.134;-8.548;2023-04-02T13:52:06;101975.3;;;18.8;62.6
72124;BME280;63818;37.134;-8.548;2023-04-02T13:56:59;101966.4;;;18.9;63.4
72124;BME280;63818;37.134;-8.548;2023-04-02T14:01:46;101955.3;;;18.9;64.7
72124;BME280;63818;37.134;-8.548;2023-04-02T14:06:47;101952.9;;;19.0;64.9
72124;BME280;63818;37.134;-8.548;2023-04-02T14:11:42;101943.4;;;19.0;65.6
72124;BME280;63818;37.134;-8.548;2023-04-02T14:16:40;101950.5;;;19.1;65.5
72124;BME280;63818;37.134;-8.548;2023-04-02T14:21:37;101940.6;;;19.1;65.5
72124;BME280;63818;37.134;-8.548;2023-04-02T14:26:33;101924.0;;;19.2;65.3
72124;BME280;63818;37.134;-8.548;2023-04-02T14:31:26;101917.2;;;19.2;65.3
72124;BME280;63818;37.134;-8.548;2023-04-02T14:36:23;101913.1;;;19.3;65.4
72124;BME280;63818;37.134;-8.548;2023-04-02T14:41:17;101899.3;;;19.4;65.8
72124;BME280;63818;37.134;-8.548;2023-04-02T14:46:13;101896.4;;;19.4;66.0
72124;BME280;63818;37.134;-8.548;2023-04-02T14:51:02;101885.4;;;19.5;65.8
72124;BME280;63818;37.134;-8.548;2023-04-02T14:55:56;101880.2;;;19.6;64.9
72124;BME280;63818;37.134;-8.548;2023-04-02T15:00:55;101853.4;;;19.6;62.9
72124;BME280;63818;37.134;-8.548;2023-04-02T15:05:45;101835.0;;;19.7;60.5
72124;BME280;63818;37.134;-8.548;2023-04-02T15:10:33;101831.1;;;19.8;59.3
72124;BME280;63818;37.134;-8.548;2023-04-02T15:15:32;101818.3;;;20.1;59.1
72124;BME280;63818;37.134;-8.548;2023-04-02T15:20:19;101818.2;;;20.5;60.6
72124;BME280;63818;37.134;-8.548;2023-04-02T15:25:19;101820.0;;;20.7;59.6
72124;BME280;63818;37.134;-8.548;2023-04-02T15:30:12;101812.9;;;20.8;56.7
72124;BME280;63818;37.134;-8.548;2023-04-02T15:35:05;101766.0;;;20.8;45.0
72124;BME280;63818;37.134;-8.548;2023-04-02T15:40:03;101751.1;;;20.9;40.3
72124;BME280;63818;37.134;-8.548;2023-04-02T15:45:16;101734.8;;;21.1;38.0
72124;BME280;63818;37.134;-8.548;2023-04-02T15:50:13;101732.2;;;21.3;36.9
72124;BME280;63818;37.134;-8.548;2023-04-02T15:55:11;101719.3;;;21.4;36.6
72124;BME280;63818;37.134;-8.548;2023-04-02T16:00:24;101707.5;;;21.6;35.7
72124;BME280;63818;37.134;-8.548;2023-04-02T16:05:16;101709.8;;;21.7;35.3
72124;BME280;63818;37.134;-8.548;2023-04-02T16:10:15;101707.7;;;21.9;34.6
72124;BME280;63818;37.134;-8.548;2023-04-02T16:15:17;101699.1;;;22.0;34.8
72124;BME280;63818;37.134;-8.548;2023-04-02T16:20:14;101685.9;;;22.1;34.3
72124;BME280;63818;37.134;-8.548;2023-04-02T16:35:16;101682.4;;;22.3;33.4
72124;BME280;63818;37.134;-8.548;2023-04-02T16:40:18;101669.6;;;22.4;33.0
72124;BME280;63818;37.134;-8.548;2023-04-02T16:45:22;101670.0;;;22.4;33.1
72124;BME280;63818;37.134;-8.548;2023-04-02T16:50:15;101669.4;;;22.5;32.5
72124;BME280;63818;37.134;-8.548;2023-04-02T16:55:09;101666.8;;;22.6;32.0
72124;BME280;63818;37.134;-8.548;2023-04-02T17:00:15;101670.3;;;22.5;33.0
72124;BME280;63818;37.134;-8.548;2023-04-02T17:05:08;101662.8;;;22.5;32.2
72124;BME280;63818;37.134;-8.548;2023-04-02T17:10:16;101657.3;;;22.5;31.9
72124;BME280;63818;37.134;-8.548;2023-04-02T17:15:13;101656.6;;;22.5;32.5
72124;BME280;63818;37.134;-8.548;2023-04-02T17:20:01;101655.7;;;22.5;32.9
72124;BME280;63818;37.134;-8.548;2023-04-02T17:24:52;101658.6;;;22.6;32.3
72124;BME280;63818;37.134;-8.548;2023-04-02T17:29:41;101657.8;;;22.5;32.0
72124;BME280;63818;37.134;-8.548;2023-04-02T17:34:30;101655.9;;;22.6;32.0
72124;BME280;63818;37.134;-8.548;2023-04-02T17:39:24;101660.9;;;22.5;32.2
72124;BME280;63818;37.134;-8.548;2023-04-02T17:44:26;101651.9;;;22.5;31.5
72124;BME280;63818;37.134;-8.548;2023-04-02T17:49:20;101655.3;;;22.5;32.2
72124;BME280;63818;37.134;-8.548;2023-04-02T17:54:24;101661.6;;;22.5;32.1
72124;BME280;63818;37.134;-8.548;2023-04-02T17:59:26;101664.3;;;22.4;31.0
72124;BME280;63818;37.134;-8.548;2023-04-02T18:04:20;101661.2;;;22.5;30.2
72124;BME280;63818;37.134;-8.548;2023-04-02T18:09:25;101666.8;;;22.5;29.7
72124;BME280;63818;37.134;-8.548;2023-04-02T18:14:23;101714.5;;;22.7;40.0
72124;BME280;63818;37.134;-8.548;2023-04-02T18:19:22;101728.6;;;22.7;42.9
72124;BME280;63818;37.134;-8.548;2023-04-02T18:24:22;101740.8;;;22.6;44.4
72124;BME280;63818;37.134;-8.548;2023-04-02T18:29:21;101734.3;;;22.5;45.2
72124;BME280;63818;37.134;-8.548;2023-04-02T18:34:31;101733.0;;;22.4;46.2
72124;BME280;63818;37.134;-8.548;2023-04-02T18:39:32;101731.7;;;22.3;46.9
72124;BME280;63818;37.134;-8.548;2023-04-02T18:44:27;101737.7;;;22.2;46.9
72124;BME280;63818;37.134;-8.548;2023-04-02T18:49:26;101741.9;;;22.1;46.8
72124;BME280;63818;37.134;-8.548;2023-04-02T18:54:19;101735.5;;;22.1;47.1
72124;BME280;63818;37.134;-8.548;2023-04-02T18:59:17;101739.6;;;22.0;47.1
72124;BME280;63818;37.134;-8.548;2023-04-02T19:04:11;101742.2;;;21.9;47.0
72124;BME280;63818;37.134;-8.548;2023-04-02T19:08:59;101749.9;;;21.8;47.4
72124;BME280;63818;37.134;-8.548;2023-04-02T19:14:00;101761.1;;;21.8;47.3
72124;BME280;63818;37.134;-8.548;2023-04-02T19:18:53;101759.0;;;21.7;47.4
72124;BME280;63818;37.134;-8.548;2023-04-02T19:23:50;101760.1;;;21.7;47.4
72124;BME280;63818;37.134;-8.548;2023-04-02T19:28:44;101761.9;;;21.6;47.3
72124;BME280;63818;37.134;-8.548;2023-04-02T19:33:42;101765.6;;;21.5;47.5
72124;BME280;63818;37.134;-8.548;2023-04-02T19:38:44;101767.5;;;21.5;47.9
72124;BME280;63818;37.134;-8.548;2023-04-02T19:43:33;101768.1;;;21.4;48.0
72124;BME280;63818;37.134;-8.548;2023-04-02T19:48:23;101765.3;;;21.4;47.8
72124;BME280;63818;37.134;-8.548;2023-04-02T19:58:02;101779.6;;;21.3;46.7
72124;BME280;63818;37.134;-8.548;2023-04-02T20:02:50;101783.4;;;21.3;46.8
72124;BME280;63818;37.134;-8.548;2023-04-02T20:07:41;101800.3;;;21.2;47.4
72124;BME280;63818;37.134;-8.548;2023-04-02T20:12:27;101796.5;;;21.1;47.8
72124;BME280;63818;37.134;-8.548;2023-04-02T20:17:14;101799.1;;;21.0;47.8
72124;BME280;63818;37.134;-8.548;2023-04-02T20:22:07;101804.0;;;21.0;47.8
72124;BME280;63818;37.134;-8.548;2023-04-02T20:27:06;101815.2;;;20.9;47.5
72124;BME280;63818;37.134;-8.548;2023-04-02T20:31:52;101824.1;;;20.9;47.7
72124;BME280;63818;37.134;-8.548;2023-04-02T20:36:39;101822.3;;;20.8;48.3
72124;BME280;63818;37.134;-8.548;2023-04-02T20:41:41;101829.2;;;20.7;48.2
72124;BME280;63818;37.134;-8.548;2023-04-02T20:46:27;101850.5;;;20.7;49.1
72124;BME280;63818;37.134;-8.548;2023-04-02T20:51:14;101845.7;;;20.6;48.9
72124;BME280;63818;37.134;-8.548;2023-04-02T20:56:03;101850.4;;;20.6;48.8
72124;BME280;63818;37.134;-8.548;2023-04-02T21:00:54;101855.5;;;20.7;49.0
72124;BME280;63818;37.134;-8.548;2023-04-02T21:05:47;101857.3;;;20.6;49.1
72124;BME280;63818;37.134;-8.548;2023-04-02T21:10:33;101869.7;;;20.6;48.6
72124;BME280;63818;37.134;-8.548;2023-04-02T21:15:19;101863.3;;;20.5;48.2
72124;BME280;63818;37.134;-8.548;2023-04-02T21:20:08;101863.7;;;20.5;48.0
72124;BME280;63818;37.134;-8.548;2023-04-02T21:24:54;101866.2;;;20.5;48.5
72124;BME280;63818;37.134;-8.548;2023-04-02T21:29:41;101861.8;;;20.4;48.3
72124;BME280;63818;37.134;-8.548;2023-04-02T21:34:28;101857.8;;;20.4;48.2
72124;BME280;63818;37.134;-8.548;2023-04-02T21:39:18;101841.8;;;20.4;47.8
72124;BME280;63818;37.134;-8.548;2023-04-02T21:44:06;101845.0;;;20.4;47.8
72124;BME280;63818;37.134;-8.548;2023-04-02T21:48:54;101840.8;;;20.4;47.9
72124;BME280;63818;37.134;-8.548;2023-04-02T21:53:41;101839.2;;;20.4;47.5
72124;BME280;63818;37.134;-8.548;2023-04-02T21:58:28;101840.7;;;20.4;46.7
72124;BME280;63818;37.134;-8.548;2023-04-02T22:03:14;101841.9;;;20.4;46.8
72124;BME280;63818;37.134;-8.548;2023-04-02T22:08:00;101845.5;;;20.4;46.8
72124;BME280;63818;37.134;-8.548;2023-04-02T22:12:48;101830.8;;;20.3;46.4
72124;BME280;63818;37.134;-8.548;2023-04-02T22:17:34;101825.4;;;20.3;46.1
72124;BME280;63818;37.134;-8.548;2023-04-02T22:22:23;101816.6;;;20.2;46.0
72124;BME280;63818;37.134;-8.548;2023-04-02T22:27:10;101824.1;;;20.2;45.6
72124;BME280;63818;37.134;-8.548;2023-04-02T22:31:57;101812.6;;;20.3;45.2
72124;BME280;63818;37.134;-8.548;2023-04-02T22:36:45;101814.5;;;20.3;45.8
72124;BME280;63818;37.134;-8.548;2023-04-02T22:41:31;101817.2;;;20.3;45.7
72124;BME280;63818;37.134;-8.548;2023-04-02T22:46:19;101809.7;;;20.2;45.4
72124;BME280;63818;37.134;-8.548;2023-04-02T22:51:05;101815.1;;;20.2;45.5
72124;BME280;63818;37.134;-8.548;2023-04-02T22:55:54;101803.2;;;20.2;45.4
72124;BME280;63818;37.134;-8.548;2023-04-02T23:00:48;101793.4;;;20.2;45.0
72124;BME280;63818;37.134;-8.548;2023-04-02T23:05:37;101787.1;;;20.2;44.5
72124;BME280;63818;37.134;-8.548;2023-04-02T23:10:24;101782.0;;;20.2;44.6
72124;BME280;63818;37.134;-8.548;2023-04-02T23:15:10;101775.0;;;20.2;44.1
72124;BME280;63818;37.134;-8.548;2023-04-02T23:19:58;101759.0;;;20.2;43.9
72124;BME280;63818;37.134;-8.548;2023-04-02T23:24:44;101762.8;;;20.2;43.3
72124;BME280;63818;37.134;-8.548;2023-04-02T23:29:30;101768.1;;;20.1;42.7
72124;BME280;63818;37.134;-8.548;2023-04-02T23:34:19;101758.9;;;20.0;41.8
72124;BME280;63818;37.134;-8.548;2023-04-02T23:39:06;101756.5;;;20.0;41.6
72124;BME280;63818;37.134;-8.548;2023-04-02T23:43:53;101755.7;;;20.0;42.0
72124;BME280;63818;37.134;-8.548;2023-04-02T23:48:43;101752.3;;;20.0;41.6
72124;BME280;63818;37.134;-8.548;2023-04-02T23:53:29;101748.1;;;20.1;41.3
72124;BME280;63818;37.134;-8.548;2023-04-02T23:58:17;101736.4;;;20.1;41.3
